Time;durP1;ratioP1;P1;durP2;ratioP2;P2;SDS_P1;SDS_P2;PMS_P1;PMS_P2;Temp;Humidity;BMP_temperature;BMP_pressure;BME280_temperature;BME280_humidity;BME280_pressure;Samples;Min_cycle;Max_cycle;Signal;HPM_P1;HPM_P2
2022/07/13 00:01:04;;;;;;;3.25;0.80;;;;;;;17.52;69.55;98500.94;1670245;84;28018;-87
2022/07/13 00:03:30;;;;;;;2.27;0.72;;;;;;;17.51;69.64;98501.95;1673070;84;28043;-87
2022/07/13 00:06:04;;;;;;;3.45;0.80;;;;;;;17.48;69.71;98501.73;1689583;83;28101;-87
2022/07/13 00:08:31;;;;;;;1.42;0.80;;;;;;;17.47;69.75;98496.58;1694259;83;28059;-87
2022/07/13 00:10:57;;;;;;;3.77;0.98;;;;;;;17.45;69.77;98494.59;1690006;82;28152;-86
2022/07/13 00:13:24;;;;;;;3.77;0.80;;;;;;;17.44;69.84;98488.96;1697007;83;28163;-87
2022/07/13 00:15:50;;;;;;;3.75;1.00;;;;;;;17.43;69.88;98497.38;1694330;83;28102;-87
2022/07/13 00:18:20;;;;;;;1.22;0.65;;;;;;;17.43;69.96;98486.80;1694348;83;28111;-87
2022/07/13 00:20:47;;;;;;;1.55;0.80;;;;;;;17.42;70.02;98486.94;1687972;83;28099;-87
2022/07/13 00:23:13;;;;;;;1.50;0.80;;;;;;;17.41;70.06;98494.05;1692363;83;28114;-87
2022/07/13 00:25:39;;;;;;;1.60;0.93;;;;;;;17.40;70.15;98495.53;1675046;83;28150;-87
2022/07/13 00:28:08;;;;;;;0.78;0.78;;;;;;;17.40;70.20;98491.57;1694412;83;28073;-87
2022/07/13 00:30:34;;;;;;;1.10;0.70;;;;;;;17.38;70.27;98488.23;1664695;82;28036;-87
2022/07/13 00:33:03;;;;;;;1.65;0.70;;;;;;;17.35;70.36;98490.66;1641219;85;28222;-87
2022/07/13 00:35:29;;;;;;;0.70;0.70;;;;;;;17.34;70.37;98489.52;1697893;82;28069;-88
2022/07/13 00:37:56;;;;;;;0.60;0.60;;;;;;;17.33;70.45;98487.35;1702103;82;41368;-88
2022/07/13 00:40:23;;;;;;;1.67;0.60;;;;;;;17.31;70.48;98495.91;1698823;82;28069;-87
2022/07/13 00:42:49;;;;;;;1.40;1.05;;;;;;;17.27;70.52;98481.81;1702781;82;28104;-87
2022/07/13 00:45:16;;;;;;;1.72;0.65;;;;;;;17.24;70.56;98484.25;1701073;82;28137;-87
2022/07/13 00:47:44;;;;;;;0.93;0.40;;;;;;;17.23;70.60;98481.29;1698835;82;28112;-87
2022/07/13 00:50:11;;;;;;;1.20;0.70;;;;;;;17.21;70.61;98487.69;1699570;82;28070;-87
2022/07/13 00:52:38;;;;;;;0.93;0.70;;;;;;;17.22;70.67;98486.72;1704599;82;28069;-87
2022/07/13 00:55:07;;;;;;;0.88;0.50;;;;;;;17.22;70.71;98486.72;1701128;82;27992;-87
2022/07/13 00:57:35;;;;;;;0.80;0.50;;;;;;;17.19;70.78;98489.16;1669669;83;28189;-87
2022/07/13 01:00:06;;;;;;;0.68;0.60;;;;;;;17.20;70.83;98492.63;1658957;85;28037;-87
2022/07/13 01:02:40;;;;;;;0.60;0.60;;;;;;;17.18;70.87;98488.84;1671702;84;28069;-88
2022/07/13 01:05:07;;;;;;;1.62;0.75;;;;;;;17.15;70.90;98483.83;1670802;84;28114;-87
2022/07/13 01:07:34;;;;;;;2.05;0.75;;;;;;;17.15;70.93;98489.95;1670960;84;28006;-87
2022/07/13 01:10:05;;;;;;;1.00;0.80;;;;;;;17.12;70.96;98490.25;1699634;82;28123;-87
2022/07/13 01:12:38;;;;;;;1.10;0.80;;;;;;;17.10;70.96;98490.88;1700980;82;28162;-87
2022/07/13 01:15:07;;;;;;;1.12;0.82;;;;;;;17.13;71.04;98495.03;1696457;82;28008;-87
2022/07/13 01:17:36;;;;;;;1.87;1.15;;;;;;;17.13;71.14;98498.51;1702282;82;28022;-87
2022/07/13 01:20:04;;;;;;;2.52;1.00;;;;;;;17.12;71.22;98504.80;1704668;82;28188;-87
2022/07/13 01:22:38;;;;;;;2.95;0.95;;;;;;;17.11;71.25;98501.81;1704544;82;28081;-87
2022/07/13 01:25:05;;;;;;;2.40;0.93;;;;;;;17.14;71.34;98500.17;1703625;82;28026;-87
2022/07/13 01:27:36;;;;;;;3.10;0.98;;;;;;;17.17;71.50;98503.03;1702668;82;28090;-87
2022/07/13 01:30:05;;;;;;;1.50;0.80;;;;;;;17.18;71.56;98506.52;1702142;82;28065;-86
2022/07/13 01:32:49;;;;;;;6.17;1.17;;;;;;;17.18;71.64;98495.94;1701396;82;28058;-87
2022/07/13 01:35:17;;;;;;;2.58;0.90;;;;;;;17.18;71.69;98503.38;1696803;82;28134;-87
2022/07/13 01:37:44;;;;;;;1.75;0.78;;;;;;;17.18;71.82;98501.22;1704753;82;28152;-87
2022/07/13 01:40:11;;;;;;;3.90;1.07;;;;;;;17.18;71.92;98506.03;1699759;82;28564;-87
2022/07/13 01:42:47;;;;;;;1.77;0.82;;;;;;;17.19;72.07;98508.16;1698795;82;28098;-87
2022/07/13 01:45:15;;;;;;;2.25;1.00;;;;;;;17.20;72.16;98508.02;1698727;82;28179;-87
2022/07/13 01:47:45;;;;;;;1.45;1.10;;;;;;;17.20;72.29;98503.21;1700368;82;28085;-87
2022/07/13 01:50:12;;;;;;;2.70;1.00;;;;;;;17.21;72.41;98504.89;1704139;82;28167;-87
2022/07/13 01:52:39;;;;;;;2.55;1.10;;;;;;;17.20;72.54;98493.95;1702682;83;28059;-87
2022/07/13 01:55:07;;;;;;;2.12;1.05;;;;;;;17.22;72.65;98497.30;1710829;82;28119;-87
2022/07/13 01:57:35;;;;;;;1.67;1.02;;;;;;;17.21;72.79;98499.59;1702340;82;28094;-87
2022/07/13 02:00:05;;;;;;;1.27;1.02;;;;;;;17.22;72.89;98493.33;1709120;82;28045;-87
2022/07/13 02:02:31;;;;;;;2.30;0.80;;;;;;;17.21;73.02;98495.14;1700536;82;28072;-87
2022/07/13 02:05:03;;;;;;;2.95;1.10;;;;;;;17.23;73.17;98498.97;1704784;82;28236;-87
2022/07/13 02:07:29;;;;;;;1.82;1.10;;;;;;;17.22;73.27;98499.45;1696584;82;28101;-87
2022/07/13 02:09:56;;;;;;;3.15;1.20;;;;;;;17.22;73.42;98503.91;1695962;82;28174;-87
2022/07/13 02:12:28;;;;;;;3.17;1.20;;;;;;;17.21;73.54;98506.20;1700609;82;28165;-87
2022/07/13 02:14:54;;;;;;;4.55;1.30;;;;;;;17.20;73.64;98508.02;1700849;82;28486;-87
2022/07/13 02:17:20;;;;;;;1.72;1.10;;;;;;;17.17;73.73;98502.20;1703377;82;28188;-87
2022/07/13 02:19:47;;;;;;;2.50;1.25;;;;;;;17.17;73.89;98507.48;1701903;82;42201;-87
2022/07/13 02:22:14;;;;;;;2.65;1.42;;;;;;;17.16;74.08;98498.72;1700647;82;28018;-87
2022/07/13 02:24:40;;;;;;;3.37;1.40;;;;;;;17.17;74.20;98507.48;1705315;82;28173;-86
2022/07/13 02:27:06;;;;;;;3.65;1.32;;;;;;;17.16;74.34;98505.33;1704067;82;42221;-87
2022/07/13 02:29:32;;;;;;;6.55;1.40;;;;;;;17.19;74.51;98509.48;1700898;82;28007;-87
2022/07/13 02:31:58;;;;;;;2.80;1.27;;;;;;;17.19;74.69;98510.80;1704144;81;28185;-87
2022/07/13 02:34:27;;;;;;;3.15;1.40;;;;;;;17.20;74.85;98505.86;1703350;82;28054;-86
2022/07/13 02:36:58;;;;;;;3.77;1.62;;;;;;;17.18;74.97;98502.06;1707463;82;28039;-88
2022/07/13 02:39:30;;;;;;;;;;;;;;;17.18;75.14;98509.99;1711493;82;28027;-87
2022/07/13 02:41:56;;;;;;;3.50;1.62;;;;;;;17.17;75.29;98507.48;1705998;82;21954;-87
2022/07/13 02:44:23;;;;;;;5.08;1.77;;;;;;;17.15;75.44;98503.17;1705406;82;28109;-88
2022/07/13 02:46:51;;;;;;;4.58;1.75;;;;;;;17.15;75.56;98503.66;1702885;82;28141;-87
2022/07/13 02:49:17;;;;;;;5.62;2.52;;;;;;;17.14;75.72;98509.44;1698444;83;28076;-88
2022/07/13 02:51:44;;;;;;;4.47;2.17;;;;;;;17.13;75.89;98506.44;1706815;82;28128;-88
2022/07/13 02:54:10;;;;;;;4.78;1.92;;;;;;;17.12;76.04;98503.97;1700184;82;28089;-88
2022/07/13 02:56:36;;;;;;;3.62;1.60;;;;;;;17.09;76.14;98505.08;1707654;82;28136;-88
2022/07/13 02:59:12;;;;;;;7.65;1.87;;;;;;;17.08;76.31;98504.73;1701662;82;28208;-87
2022/07/13 03:01:38;;;;;;;3.75;1.55;;;;;;;17.08;76.46;98507.86;1702128;82;28137;-88
2022/07/13 03:04:04;;;;;;;3.50;2.22;;;;;;;17.09;76.67;98506.88;1702940;82;28039;-87
2022/07/13 03:06:32;;;;;;;3.58;1.80;;;;;;;17.09;76.92;98501.11;1703401;82;28031;-87
2022/07/13 03:09:02;;;;;;;5.37;1.90;;;;;;;17.08;77.11;98505.21;1704048;82;28034;-88
2022/07/13 03:11:30;;;;;;;2.87;1.80;;;;;;;17.07;77.29;98503.05;1697551;82;28156;-88
2022/07/13 03:13:56;;;;;;;4.55;2.00;;;;;;;17.08;77.54;98506.05;1702187;82;28106;-88
2022/07/13 03:16:25;;;;;;;5.42;1.82;;;;;;;17.09;77.75;98502.92;1699479;82;43077;-87
2022/07/13 03:18:54;;;;;;;3.98;1.72;;;;;;;17.07;77.94;98504.38;1702221;82;28134;-86
2022/07/13 03:21:22;;;;;;;2.15;1.65;;;;;;;17.07;78.16;98504.90;1703831;82;28038;-88
2022/07/13 03:23:49;;;;;;;3.70;1.32;;;;;;;17.07;78.38;98503.05;1673837;83;28094;-88
2022/07/13 03:26:16;;;;;;;4.58;1.57;;;;;;;17.07;78.56;98510.98;1667539;84;28094;-87
2022/07/13 03:28:42;;;;;;;3.37;1.60;;;;;;;17.08;78.76;98505.21;1675205;84;28105;-88
2022/07/13 03:31:08;;;;;;;3.45;2.25;;;;;;;17.12;79.03;98507.94;1645174;83;28120;-87
2022/07/13 03:33:37;;;;;;;13.25;2.00;;;;;;;17.14;79.29;98508.11;1654926;85;28068;-88
2022/07/13 03:36:04;;;;;;;2.20;1.25;;;;;;;17.17;79.55;98503.52;1703749;82;28172;-88
2022/07/13 03:38:31;;;;;;;4.08;1.50;;;;;;;17.16;79.82;98497.39;1700063;82;28112;-87
2022/07/13 03:40:57;;;;;;;2.55;1.25;;;;;;;17.28;80.14;98507.30;1702970;82;28108;-87
2022/07/13 03:43:28;;;;;;;2.95;1.60;;;;;;;17.37;80.41;98513.02;1703918;82;28224;-87
2022/07/13 03:45:55;;;;;;;3.83;1.80;;;;;;;17.47;80.78;98511.14;1702236;82;28094;-88
2022/07/13 03:48:24;;;;;;;3.87;1.35;;;;;;;17.64;81.24;98510.86;1700644;82;28082;-88
2022/07/13 03:50:50;;;;;;;6.15;1.57;;;;;;;17.80;81.66;98515.83;1702365;82;28394;-87
2022/07/13 03:53:16;;;;;;;4.30;1.60;;;;;;;17.98;82.03;98514.03;1699665;82;28102;-89
2022/07/13 03:55:44;;;;;;;3.83;1.50;;;;;;;18.16;82.36;98510.05;1705794;82;28117;-88
2022/07/13 03:58:12;;;;;;;3.67;1.40;;;;;;;18.34;82.59;98512.66;1677738;83;28086;-87
2022/07/13 04:00:38;;;;;;;2.52;1.30;;;;;;;18.50;82.75;98518.07;1640530;87;28072;-87
2022/07/13 04:03:05;;;;;;;3.52;1.55;;;;;;;18.63;82.78;98518.54;1670142;83;28001;-87
2022/07/13 04:05:31;;;;;;;2.22;1.37;;;;;;;18.77;82.78;98519.77;1643529;85;28185;-87
2022/07/13 04:07:58;;;;;;;4.33;1.65;;;;;;;18.87;82.73;98517.88;1699625;82;28097;-87
2022/07/13 04:10:26;;;;;;;4.65;1.70;;;;;;;19.01;82.69;98521.74;1699429;82;28168;-87
2022/07/13 04:12:53;;;;;;;2.55;1.40;;;;;;;19.13;82.66;98513.36;1699687;82;28105;-87
2022/07/13 04:15:20;;;;;;;2.17;1.30;;;;;;;19.25;82.56;98516.56;1705734;82;28133;-88
2022/07/13 04:17:48;;;;;;;5.50;1.52;;;;;;;19.37;82.46;98511.77;1700139;84;28101;-87
2022/07/13 04:20:23;;;;;;;4.80;1.80;;;;;;;19.48;82.37;98511.02;1706849;82;28180;-87
2022/07/13 04:22:51;;;;;;;3.20;1.72;;;;;;;19.58;82.17;98514.88;1704132;82;28105;-87
2022/07/13 04:25:18;;;;;;;3.92;1.47;;;;;;;19.67;81.94;98508.59;1705857;82;28085;-88
2022/07/13 04:27:44;;;;;;;4.78;1.77;;;;;;;19.76;81.83;98507.60;1701621;82;28419;-88
2022/07/13 04:30:13;;;;;;;3.80;1.70;;;;;;;19.85;81.66;98513.28;1704874;82;28047;-87
2022/07/13 04:32:39;;;;;;;3.75;1.95;;;;;;;19.92;81.44;98517.42;1727820;81;28069;-87
2022/07/13 04:35:06;;;;;;;3.72;1.60;;;;;;;19.94;81.17;98516.77;1725168;81;28167;-88
2022/07/13 04:37:34;;;;;;;3.72;1.60;;;;;;;19.95;80.94;98523.26;1733135;81;28062;-87
2022/07/13 04:40:01;;;;;;;4.40;1.50;;;;;;;19.91;80.61;98519.77;1730741;81;28069;-87
2022/07/13 04:42:27;;;;;;;3.30;1.32;;;;;;;19.84;80.24;98521.41;1733089;81;28132;-87
2022/07/13 04:44:54;;;;;;;3.67;1.72;;;;;;;19.79;79.94;98520.58;1736440;81;28009;-88
2022/07/13 04:47:20;;;;;;;3.22;1.70;;;;;;;19.72;79.73;98518.72;1733372;81;28111;-87
2022/07/13 04:49:46;;;;;;;3.17;1.82;;;;;;;19.63;79.46;98531.16;1724926;81;28128;-87
2022/07/13 04:52:12;;;;;;;4.65;1.45;;;;;;;19.55;79.26;98524.48;1733442;81;28013;-87
2022/07/13 04:54:38;;;;;;;5.97;1.57;;;;;;;19.48;79.21;98526.11;1727439;81;28177;-87
2022/07/13 04:57:04;;;;;;;6.03;1.65;;;;;;;19.41;79.18;98513.13;1727980;81;28105;-87
2022/07/13 04:59:30;;;;;;;3.65;1.80;;;;;;;19.34;79.17;98518.25;1730842;81;42359;-87
2022/07/13 05:01:57;;;;;;;3.80;1.85;;;;;;;19.25;79.09;98529.83;1737892;81;28167;-87
2022/07/13 05:04:24;;;;;;;4.75;2.00;;;;;;;19.23;79.17;98526.49;1733418;81;28069;-87
2022/07/13 05:07:01;;;;;;;3.92;1.75;;;;;;;19.22;79.39;98523.00;1738412;81;28085;-87
2022/07/13 05:09:30;;;;;;;4.30;1.90;;;;;;;19.21;79.67;98527.97;1726018;81;28061;-88
2022/07/13 05:11:57;;;;;;;5.87;1.90;;;;;;;19.24;79.93;98526.83;1699424;81;28088;-87
2022/07/13 05:14:28;;;;;;;4.87;1.72;;;;;;;19.25;80.19;98523.20;1729958;81;43086;-87
2022/07/13 05:16:55;;;;;;;6.22;2.25;;;;;;;19.24;80.53;98518.88;1735014;81;28205;-87
2022/07/13 05:19:21;;;;;;;8.65;2.67;;;;;;;19.21;80.84;98525.31;1736967;81;28111;-87
2022/07/13 05:21:50;;;;;;;8.10;2.47;;;;;;;19.22;81.14;98522.17;1729548;81;28084;-87
2022/07/13 05:24:19;;;;;;;7.83;2.98;;;;;;;19.25;81.47;98520.55;1727183;81;28152;-87
2022/07/13 05:26:46;;;;;;;7.00;2.47;;;;;;;19.27;81.74;98523.02;1699695;83;28539;-88
2022/07/13 05:29:12;;;;;;;6.22;2.95;;;;;;;19.32;82.03;98524.20;1736545;81;28073;-87
2022/07/13 05:31:38;;;;;;;6.35;2.45;;;;;;;19.39;82.37;98531.86;1728758;81;28232;-87
2022/07/13 05:34:05;;;;;;;6.30;2.80;;;;;;;19.43;82.59;98528.38;1725472;81;28269;-87
2022/07/13 05:36:32;;;;;;;6.53;2.58;;;;;;;19.48;82.75;98528.27;1729153;81;28091;-87
2022/07/13 05:38:59;;;;;;;7.20;3.22;;;;;;;19.54;82.98;98516.17;1729006;81;28069;-87
2022/07/13 05:41:27;;;;;;;8.40;2.72;;;;;;;19.59;83.18;98508.06;1722578;81;28079;-87
2022/07/13 05:43:53;;;;;;;6.42;2.65;;;;;;;19.62;83.34;98502.45;1734881;81;28055;-87
2022/07/13 05:46:19;;;;;;;4.70;2.37;;;;;;;19.67;83.42;98504.61;1730552;81;43033;-87
2022/07/13 05:48:45;;;;;;;6.30;2.62;;;;;;;19.73;83.37;98507.11;1726718;81;28062;-87
2022/07/13 05:51:12;;;;;;;4.70;2.40;;;;;;;19.74;83.43;98512.27;1736101;81;27990;-87
2022/07/13 05:53:39;;;;;;;4.95;2.55;;;;;;;19.82;83.58;98521.56;1733998;81;28069;-87
2022/07/13 05:56:05;;;;;;;6.03;1.90;;;;;;;19.92;83.84;98528.05;1731997;81;28094;-87
2022/07/13 05:58:31;;;;;;;3.98;2.12;;;;;;;20.00;84.11;98532.06;1732806;81;28182;-87
2022/07/13 06:00:58;;;;;;;3.50;1.80;;;;;;;20.02;84.16;98528.72;1735925;81;28100;-87
2022/07/13 06:03:24;;;;;;;4.97;2.60;;;;;;;20.04;84.18;98534.71;1727019;81;27989;-87
2022/07/13 06:05:51;;;;;;;4.20;1.35;;;;;;;20.02;84.01;98528.72;1722755;81;28109;-87
2022/07/13 06:08:17;;;;;;;4.85;1.65;;;;;;;20.02;83.85;98524.24;1736272;81;28104;-87
2022/07/13 06:10:46;;;;;;;3.95;1.50;;;;;;;20.02;83.76;98518.92;1731180;81;28014;-87
2022/07/13 06:13:12;;;;;;;2.22;1.20;;;;;;;20.03;83.70;98528.56;1716932;81;28138;-87
2022/07/13 06:15:38;;;;;;;3.25;1.40;;;;;;;20.01;83.47;98528.41;1728568;81;28096;-87
2022/07/13 06:18:07;;;;;;;3.30;1.47;;;;;;;19.98;83.19;98529.55;1724804;81;42177;-87
2022/07/13 06:20:33;;;;;;;3.70;1.50;;;;;;;19.97;83.00;98537.69;1731547;81;28130;-87
2022/07/13 06:23:11;;;;;;;2.52;1.32;;;;;;;19.93;82.94;98532.37;1724838;81;28111;-87
2022/07/13 06:25:40;;;;;;;1.70;1.05;;;;;;;19.96;83.20;98530.73;1730803;81;28081;-87
2022/07/13 06:28:07;;;;;;;3.37;1.37;;;;;;;19.96;83.24;98530.23;1700059;82;28062;-87
2022/07/13 06:30:36;;;;;;;2.67;1.05;;;;;;;19.95;83.16;98528.57;1728298;81;28158;-87
2022/07/13 06:33:02;;;;;;;2.42;1.15;;;;;;;20.03;83.23;98536.53;1730899;80;28045;-88
2022/07/13 06:35:34;;;;;;;3.35;1.50;;;;;;;20.05;83.10;98527.08;1739162;81;28077;-87
2022/07/13 06:38:00;;;;;;;2.10;1.45;;;;;;;20.07;82.97;98528.25;1732083;81;28116;-87
2022/07/13 06:40:33;;;;;;;2.47;1.57;;;;;;;20.07;82.75;98537.06;1728402;81;28093;-87
2022/07/13 06:42:59;;;;;;;2.83;1.27;;;;;;;20.07;82.62;98527.76;1734631;81;28058;-87
2022/07/13 06:45:25;;;;;;;2.50;1.40;;;;;;;20.10;82.66;98524.76;1729393;81;42191;-87
2022/07/13 06:47:52;;;;;;;2.25;1.20;;;;;;;20.16;82.77;98528.58;1734679;81;28207;-87
2022/07/13 06:50:18;;;;;;;5.28;1.37;;;;;;;20.21;82.92;98524.44;1725633;81;28121;-87
2022/07/13 06:52:44;;;;;;;4.10;1.52;;;;;;;20.30;83.05;98527.41;1735190;81;28012;-87
2022/07/13 06:55:12;;;;;;;3.22;1.30;;;;;;;20.36;83.09;98527.28;1737120;81;28108;-87
2022/07/13 06:57:39;;;;;;;1.55;1.02;;;;;;;20.40;82.93;98529.44;1724273;81;28104;-87
2022/07/13 07:00:06;;;;;;;2.12;1.15;;;;;;;20.43;82.94;98518.48;1733092;81;28159;-87
2022/07/13 07:02:33;;;;;;;2.25;1.05;;;;;;;20.51;82.94;98524.80;1727162;81;28006;-87
2022/07/13 07:05:00;;;;;;;1.85;0.93;;;;;;;20.61;83.15;98524.95;1730896;81;28058;-87
2022/07/13 07:07:26;;;;;;;1.22;1.05;;;;;;;20.68;83.14;98525.92;1730137;81;28147;-87
2022/07/13 07:09:53;;;;;;;1.32;0.98;;;;;;;20.74;83.07;98523.09;1732011;81;42007;-88
2022/07/13 07:12:19;;;;;;;2.72;1.10;;;;;;;20.78;83.01;98521.25;1735735;81;28096;-88
2022/07/13 07:14:45;;;;;;;2.22;1.17;;;;;;;20.82;83.01;98513.77;1730329;81;28134;-87
2022/07/13 07:17:12;;;;;;;3.33;1.25;;;;;;;20.85;83.08;98524.06;1731315;81;27987;-88
2022/07/13 07:19:38;;;;;;;3.17;0.82;;;;;;;20.89;83.20;98524.88;1727771;81;28082;-88
2022/07/13 07:22:04;;;;;;;1.92;0.80;;;;;;;20.98;83.27;98524.38;1732343;81;28179;-86
2022/07/13 07:24:31;;;;;;;1.22;0.88;;;;;;;21.09;83.52;98520.02;1732565;81;28096;-88
2022/07/13 07:26:57;;;;;;;2.05;0.78;;;;;;;21.17;83.43;98521.84;1732161;81;28213;-88
2022/07/13 07:29:23;;;;;;;0.60;0.50;;;;;;;21.24;83.26;98522.32;1733458;81;41288;-88
2022/07/13 07:31:49;;;;;;;1.10;0.60;;;;;;;21.29;83.26;98527.95;1732981;81;28198;-89
2022/07/13 07:34:15;;;;;;;0.93;0.60;;;;;;;21.39;83.21;98525.58;1707581;81;28503;-88
2022/07/13 07:36:42;;;;;;;2.47;0.88;;;;;;;21.50;83.18;98525.19;1703833;82;28153;-87
2022/07/13 07:39:11;;;;;;;1.07;0.50;;;;;;;21.59;83.18;98528.17;1706120;82;28134;-88
2022/07/13 07:41:41;;;;;;;1.67;0.55;;;;;;;21.71;83.21;98521.45;1700787;82;28077;-87
2022/07/13 07:44:08;;;;;;;1.20;0.50;;;;;;;21.81;83.22;98519.38;1701565;82;28074;-87
2022/07/13 07:46:34;;;;;;;1.77;0.70;;;;;;;21.90;83.12;98518.31;1704975;82;28054;-87
2022/07/13 07:49:00;;;;;;;2.22;0.70;;;;;;;22.03;83.43;98516.44;1702789;82;28176;-87
2022/07/13 07:51:26;;;;;;;1.98;0.60;;;;;;;22.15;83.66;98512.86;1708614;82;28036;-87
2022/07/13 07:53:52;;;;;;;3.42;0.82;;;;;;;22.26;83.49;98519.91;1702731;82;28039;-87
2022/07/13 07:56:18;;;;;;;1.75;0.68;;;;;;;22.28;83.09;98519.73;1704208;82;28135;-88
2022/07/13 07:58:44;;;;;;;0.88;0.50;;;;;;;22.31;82.87;98518.86;1703829;82;28030;-88
2022/07/13 08:01:12;;;;;;;0.82;0.60;;;;;;;22.42;82.67;98513.63;1700829;82;28091;-87
2022/07/13 08:03:39;;;;;;;1.47;0.60;;;;;;;22.46;82.46;98516.26;1702998;82;28085;-87
2022/07/13 08:06:05;;;;;;;2.95;0.60;;;;;;;22.48;81.94;98513.72;1703780;82;28381;-87
2022/07/13 08:08:31;;;;;;;2.15;0.60;;;;;;;22.41;80.82;98517.30;1700825;82;28197;-87
2022/07/13 08:10:57;;;;;;;1.40;0.50;;;;;;;22.44;80.57;98519.59;1705780;82;28079;-88
2022/07/13 08:13:23;;;;;;;0.37;0.37;;;;;;;22.49;80.38;98517.22;1705818;82;28121;-88
2022/07/13 08:15:49;;;;;;;1.75;0.50;;;;;;;22.58;80.16;98502.81;1702452;82;28117;-89
2022/07/13 08:18:17;;;;;;;1.92;0.50;;;;;;;22.54;79.49;98516.17;1704604;82;28069;-87
2022/07/13 08:20:44;;;;;;;1.10;0.50;;;;;;;22.51;78.64;98512.54;1699146;82;28166;-87
2022/07/13 08:25:55;;;;;;;0.47;0.42;;;;;;;22.65;78.39;98511.73;1700648;82;28063;-87
2022/07/13 08:28:22;;;;;;;1.60;0.50;;;;;;;22.73;78.35;98503.69;1703813;82;28000;-87
2022/07/13 08:30:48;;;;;;;0.55;0.50;;;;;;;22.84;78.13;98508.58;1698427;82;28098;-88
2022/07/13 08:38:34;;;;;;;4.70;0.42;;;;;;;22.89;77.25;98508.03;1678560;82;28048;-88
2022/07/13 08:38:37;;;;;;;1.12;0.33;;;;;;;23.05;76.19;98520.36;1666109;85;28103;-88
2022/07/13 08:41:05;;;;;;;1.53;0.40;;;;;;;23.14;75.54;98515.24;1684199;84;28094;-87
2022/07/13 08:43:39;;;;;;;0.28;0.20;;;;;;;23.25;75.06;98518.78;1668610;84;28087;-88
2022/07/13 08:46:08;;;;;;;0.23;0.23;;;;;;;23.27;74.10;98512.76;1696797;83;28190;-88
2022/07/13 08:48:38;;;;;;;0.72;0.30;;;;;;;23.29;73.51;98510.74;1694331;82;28014;-88
2022/07/13 08:51:09;;;;;;;0.62;0.20;;;;;;;23.34;73.14;98521.19;1688042;82;28510;-88
2022/07/13 08:53:35;;;;;;;0.20;0.20;;;;;;;23.38;72.37;98516.30;1690065;83;28193;-88
2022/07/13 08:56:04;;;;;;;0.42;0.20;;;;;;;23.44;71.49;98511.55;1682796;83;28061;-88
2022/07/13 08:58:31;;;;;;;1.02;0.28;;;;;;;23.46;70.40;98519.38;1675801;84;28075;-88
2022/07/13 09:01:00;;;;;;;1.67;0.30;;;;;;;23.45;69.45;98509.70;1694227;83;28083;-88
2022/07/13 09:03:26;;;;;;;0.42;0.42;;;;;;;23.48;68.96;98508.02;1686678;84;28170;-87
2022/07/13 09:05:52;;;;;;;1.85;0.60;;;;;;;23.56;68.80;98503.91;1663716;84;28118;-87
2022/07/13 09:08:20;;;;;;;0.30;0.30;;;;;;;23.66;68.65;98501.27;1684112;84;28085;-88
2022/07/13 09:10:58;;;;;;;0.60;0.40;;;;;;;23.72;68.09;98499.17;1702576;82;28095;-87
2022/07/13 09:13:34;;;;;;;0.68;0.30;;;;;;;23.82;67.86;98503.38;1690797;83;28116;-87
2022/07/13 09:16:22;;;;;;;0.35;0.30;;;;;;;23.88;67.87;98511.98;1698419;83;42889;-88
2022/07/13 09:19:08;;;;;;;3.33;0.40;;;;;;;23.96;67.65;98510.50;1695355;83;28136;-88
2022/07/13 09:21:30;;;;;;;1.02;0.60;;;;;;;24.01;66.45;98506.75;1719584;81;28033;-88
2022/07/13 09:23:58;;;;;;;1.15;0.40;;;;;;;24.04;65.52;98512.56;1725646;81;28343;-88
2022/07/13 09:26:42;;;;;;;0.55;0.50;;;;;;;24.11;65.06;98512.63;1724668;80;28031;-87
2022/07/13 09:29:12;;;;;;;3.08;0.50;;;;;;;24.18;65.05;98507.68;1758927;79;28103;-87
2022/07/13 09:31:53;;;;;;;0.62;0.40;;;;;;;24.24;64.62;98512.77;1759212;79;28179;-88
2022/07/13 09:34:46;;;;;;;2.33;0.43;;;;;;;24.31;64.17;98506.16;1757636;79;28124;-87
2022/07/13 09:37:19;;;;;;;2.90;0.72;;;;;;;24.31;63.56;98506.98;1715764;81;28111;-87
2022/07/13 09:40:11;;;;;;;0.55;0.50;;;;;;;24.20;62.37;98508.83;1764079;79;28125;-87
2022/07/13 09:46:08;;;;;;;1.72;0.45;;;;;;;24.22;61.82;98495.28;1758039;79;28079;-87
2022/07/13 09:48:07;;;;;;;0.60;0.40;;;;;;;24.22;60.95;98501.97;1730886;81;28187;-87
2022/07/13 09:50:39;;;;;;;0.45;0.35;;;;;;;24.32;60.92;98494.44;1756604;79;28002;-87
2022/07/13 09:53:23;;;;;;;;;;;;;;;24.40;60.85;98491.10;1765588;79;28034;-87
2022/07/13 09:55:52;;;;;;;0.30;0.30;;;;;;;24.47;60.63;98487.14;1754345;79;21995;-87
2022/07/13 09:58:21;;;;;;;2.15;0.40;;;;;;;24.49;60.13;98492.61;1757631;79;28067;-87
2022/07/13 10:00:48;;;;;;;1.50;0.40;;;;;;;24.51;59.67;98490.58;1756918;79;28093;-87
2022/07/13 10:03:15;;;;;;;2.55;0.40;;;;;;;24.62;59.24;98487.88;1727856;81;28134;-88
2022/07/13 10:05:42;;;;;;;0.62;0.30;;;;;;;24.68;58.31;98491.62;1753364;79;28144;-87
2022/07/13 10:08:11;;;;;;;0.82;0.30;;;;;;;24.72;57.59;98492.87;1757683;79;28093;-87
2022/07/13 10:10:38;;;;;;;1.35;0.40;;;;;;;24.76;57.27;98496.84;1746461;79;28027;-87
2022/07/13 10:13:07;;;;;;;1.05;0.45;;;;;;;24.72;56.68;98495.05;1757417;79;28171;-87
2022/07/13 10:15:37;;;;;;;1.30;0.45;;;;;;;24.83;56.65;98499.02;1722864;81;28011;-87
2022/07/13 10:18:07;;;;;;;2.47;0.50;;;;;;;24.93;56.60;98496.85;1728911;80;28082;-87
2022/07/13 10:20:38;;;;;;;0.40;0.35;;;;;;;24.97;56.23;98519.55;1750406;79;28098;-87
2022/07/13 10:23:04;;;;;;;1.35;0.55;;;;;;;24.98;55.71;98512.64;1764424;78;28175;-88
2022/07/13 10:25:43;;;;;;;0.70;0.28;;;;;;;25.00;55.34;98513.28;1760969;79;28144;-88
2022/07/13 10:28:10;;;;;;;1.12;0.30;;;;;;;25.01;55.05;98515.45;1749905;80;28161;-87
2022/07/13 10:30:36;;;;;;;1.70;0.45;;;;;;;25.04;54.73;98515.59;1761908;79;28085;-87
2022/07/13 10:33:22;;;;;;;0.50;0.30;;;;;;;25.07;54.55;98516.01;1761141;79;28072;-87
2022/07/13 10:35:54;;;;;;;0.75;0.33;;;;;;;25.08;54.29;98509.63;1759022;79;28130;-87
2022/07/13 10:38:26;;;;;;;1.40;0.50;;;;;;;25.13;53.99;98518.41;1746372;79;28111;-88
2022/07/13 10:41:11;;;;;;;1.20;0.30;;;;;;;25.23;53.83;98510.84;1739043;81;28039;-87
2022/07/13 10:43:56;;;;;;;0.70;0.50;;;;;;;25.37;53.90;98508.02;1718579;81;28024;-87
2022/07/13 10:46:50;;;;;;;0.65;0.30;;;;;;;25.41;53.63;98510.63;1739271;80;28119;-88
2022/07/13 10:49:32;;;;;;;0.35;0.30;;;;;;;25.45;53.18;98518.26;1716293;81;28196;-87
2022/07/13 10:52:22;;;;;;;1.87;0.30;;;;;;;25.45;52.60;98511.56;1715142;81;28021;-87
2022/07/13 10:55:07;;;;;;;1.27;0.30;;;;;;;25.48;52.52;98524.03;1727286;81;28079;-87
2022/07/13 10:57:37;;;;;;;0.72;0.40;;;;;;;25.53;51.97;98519.44;1718792;81;28090;-87
2022/07/13 11:00:25;;;;;;;1.60;0.30;;;;;;;25.60;51.87;98517.11;1730034;81;28082;-87
2022/07/13 11:03:01;;;;;;;1.22;0.35;;;;;;;25.65;51.72;98507.13;1717056;81;28100;-87
2022/07/13 11:05:26;;;;;;;0.40;0.20;;;;;;;25.72;51.73;98509.32;1707212;81;28087;-87
2022/07/13 11:07:54;;;;;;;2.52;0.50;;;;;;;25.81;51.74;98514.29;1737012;80;28091;-87
2022/07/13 11:10:26;;;;;;;0.68;0.50;;;;;;;25.86;51.36;98509.66;1725617;81;28111;-87
2022/07/13 11:13:04;;;;;;;2.08;0.50;;;;;;;25.86;50.89;98511.00;1720474;81;28156;-87
2022/07/13 11:15:52;;;;;;;0.85;0.57;;;;;;;25.90;50.73;98508.76;1702862;82;28116;-87
2022/07/13 11:18:27;;;;;;;0.50;0.50;;;;;;;25.90;50.37;98519.48;1722048;81;28449;-88
2022/07/13 11:21:03;;;;;;;0.78;0.50;;;;;;;25.95;50.39;98512.48;1730681;81;28073;-87
2022/07/13 11:26:40;;;;;;;1.45;0.50;;;;;;;26.02;50.26;98507.94;1749749;79;28061;-88
2022/07/13 11:29:19;;;;;;;1.85;0.60;;;;;;;26.06;50.15;98511.06;1751769;79;28069;-88
2022/07/13 11:32:01;;;;;;;0.50;0.50;;;;;;;26.10;50.06;98514.47;1755937;79;28014;-87
2022/07/13 11:34:31;;;;;;;2.08;0.50;;;;;;;26.10;49.65;98499.72;1758757;79;28110;-87
2022/07/13 11:37:00;;;;;;;1.85;0.40;;;;;;;26.21;49.64;98495.59;1753427;79;28070;-88
2022/07/13 11:39:33;;;;;;;2.05;0.50;;;;;;;26.30;49.68;98494.90;1759321;79;28140;-88
2022/07/13 11:42:01;;;;;;;3.00;0.55;;;;;;;26.32;49.39;98503.58;1752139;79;28200;-88
2022/07/13 11:44:30;;;;;;;0.80;0.35;;;;;;;26.36;49.27;98504.30;1750932;79;28068;-88
2022/07/13 11:46:59;;;;;;;1.55;0.37;;;;;;;26.46;49.41;98507.91;1754507;79;28079;-87
2022/07/13 11:49:46;;;;;;;0.70;0.35;;;;;;;26.60;49.43;98493.47;1758166;79;28079;-88
2022/07/13 11:52:24;;;;;;;0.57;0.37;;;;;;;26.68;49.02;98487.88;1749592;80;28104;-88
2022/07/13 11:55:05;;;;;;;0.53;0.40;;;;;;;26.67;48.47;98484.91;1760122;79;28076;-87